sensor_id;sensor_type;location;lat;lon;timestamp;temperature;humidity
35085;SHT85;21267;51.032;6.998;2023-12-04T00:01:31;0.41;84.07
35085;SHT85;21267;51.032;6.998;2023-12-04T00:03:58;0.44;83.73
35085;SHT85;21267;51.032;6.998;2023-12-04T00:06:25;0.42;84.23
35085;SHT85;21267;51.032;6.998;2023-12-04T00:08:52;0.42;83.87
35085;SHT85;21267;51.032;6.998;2023-12-04T00:11:19;0.42;83.71
35085;SHT85;21267;51.032;6.998;2023-12-04T00:13:46;0.44;83.40
35085;SHT85;21267;51.032;6.998;2023-12-04T00:16:13;0.41;83.72
35085;SHT85;21267;51.032;6.998;2023-12-04T00:18:40;0.45;82.90
35085;SHT85;21267;51.032;6.998;2023-12-04T00:21:07;0.45;83.16
35085;SHT85;21267;51.032;6.998;2023-12-04T00:23:34;0.44;83.09
35085;SHT85;21267;51.032;6.998;2023-12-04T00:26:01;0.48;82.67
35085;SHT85;21267;51.032;6.998;2023-12-04T00:28:29;0.50;82.82
35085;SHT85;21267;51.032;6.998;2023-12-04T00:30:56;0.49;82.45
35085;SHT85;21267;51.032;6.998;2023-12-04T00:33:23;0.46;82.93
35085;SHT85;21267;51.032;6.998;2023-12-04T00:35:50;0.48;82.78
35085;SHT85;21267;51.032;6.998;2023-12-04T00:38:17;0.49;82.57
35085;SHT85;21267;51.032;6.998;2023-12-04T00:40:44;0.50;82.34
35085;SHT85;21267;51.032;6.998;2023-12-04T00:43:11;0.52;82.27
35085;SHT85;21267;51.032;6.998;2023-12-04T00:45:38;0.49;82.57
35085;SHT85;21267;51.032;6.998;2023-12-04T00:48:05;0.50;82.07
35085;SHT85;21267;51.032;6.998;2023-12-04T00:50:32;0.49;82.07
35085;SHT85;21267;51.032;6.998;2023-12-04T00:52:58;0.53;82.31
35085;SHT85;21267;51.032;6.998;2023-12-04T00:55:25;0.45;82.20
35085;SHT85;21267;51.032;6.998;2023-12-04T01:01:38;0.39;82.59
35085;SHT85;21267;51.032;6.998;2023-12-04T01:04:05;0.35;82.42
35085;SHT85;21267;51.032;6.998;2023-12-04T01:06:32;0.32;82.26
35085;SHT85;21267;51.032;6.998;2023-12-04T01:08:59;0.38;81.90
35085;SHT85;21267;51.032;6.998;2023-12-04T01:11:26;0.38;82.13
35085;SHT85;21267;51.032;6.998;2023-12-04T01:13:53;0.42;81.51
35085;SHT85;21267;51.032;6.998;2023-12-04T01:16:20;0.34;81.70
35085;SHT85;21267;51.032;6.998;2023-12-04T01:18:47;0.32;82.07
35085;SHT85;21267;51.032;6.998;2023-12-04T01:21:14;0.34;81.85
35085;SHT85;21267;51.032;6.998;2023-12-04T01:23:41;0.37;81.85
35085;SHT85;21267;51.032;6.998;2023-12-04T01:26:10;0.38;81.52
35085;SHT85;21267;51.032;6.998;2023-12-04T01:28:36;0.37;81.95
35085;SHT85;21267;51.032;6.998;2023-12-04T01:31:04;0.37;81.59
35085;SHT85;21267;51.032;6.998;2023-12-04T01:33:30;0.34;81.44
35085;SHT85;21267;51.032;6.998;2023-12-04T01:35:57;0.38;81.17
35085;SHT85;21267;51.032;6.998;2023-12-04T01:38:24;0.37;81.06
35085;SHT85;21267;51.032;6.998;2023-12-04T01:40:51;0.37;81.41
35085;SHT85;21267;51.032;6.998;2023-12-04T01:43:18;0.35;81.40
35085;SHT85;21267;51.032;6.998;2023-12-04T01:45:45;0.37;81.20
35085;SHT85;21267;51.032;6.998;2023-12-04T01:48:13;0.37;81.01
35085;SHT85;21267;51.032;6.998;2023-12-04T01:50:40;0.42;80.70
35085;SHT85;21267;51.032;6.998;2023-12-04T01:53:07;0.38;80.97
35085;SHT85;21267;51.032;6.998;2023-12-04T01:55:35;0.39;80.52
35085;SHT85;21267;51.032;6.998;2023-12-04T01:58:04;0.39;80.63
35085;SHT85;21267;51.032;6.998;2023-12-04T02:00:31;0.41;80.62
35085;SHT85;21267;51.032;6.998;2023-12-04T02:02:59;0.42;80.21
35085;SHT85;21267;51.032;6.998;2023-12-04T02:05:26;0.42;80.45
35085;SHT85;21267;51.032;6.998;2023-12-04T02:07:54;0.39;80.60
35085;SHT85;21267;51.032;6.998;2023-12-04T02:10:22;0.42;80.24
35085;SHT85;21267;51.032;6.998;2023-12-04T02:12:50;0.41;80.29
35085;SHT85;21267;51.032;6.998;2023-12-04T02:15:17;0.34;80.81
35085;SHT85;21267;51.032;6.998;2023-12-04T02:17:44;0.35;80.69
35085;SHT85;21267;51.032;6.998;2023-12-04T02:20:15;0.39;80.44
35085;SHT85;21267;51.032;6.998;2023-12-04T02:22:41;0.42;80.09
35085;SHT85;21267;51.032;6.998;2023-12-04T02:25:09;0.39;80.58
35085;SHT85;21267;51.032;6.998;2023-12-04T02:27:58;0.38;80.71
35085;SHT85;21267;51.032;6.998;2023-12-04T02:30:28;0.38;80.15
35085;SHT85;21267;51.032;6.998;2023-12-04T02:32:59;0.39;80.05
35085;SHT85;21267;51.032;6.998;2023-12-04T02:35:31;0.39;80.37
35085;SHT85;21267;51.032;6.998;2023-12-04T02:38:02;0.41;80.16
35085;SHT85;21267;51.032;6.998;2023-12-04T02:40:29;0.38;80.10
35085;SHT85;21267;51.032;6.998;2023-12-04T02:42:56;0.38;79.97
35085;SHT85;21267;51.032;6.998;2023-12-04T02:45:23;0.38;79.94
35085;SHT85;21267;51.032;6.998;2023-12-04T02:47:51;0.41;80.23
35085;SHT85;21267;51.032;6.998;2023-12-04T02:50:18;0.37;80.10
35085;SHT85;21267;51.032;6.998;2023-12-04T02:52:44;0.29;80.37
35085;SHT85;21267;51.032;6.998;2023-12-04T02:55:11;0.39;79.65
35085;SHT85;21267;51.032;6.998;2023-12-04T02:57:38;0.39;79.75
35085;SHT85;21267;51.032;6.998;2023-12-04T03:00:06;0.41;79.46
35085;SHT85;21267;51.032;6.998;2023-12-04T03:02:33;0.46;78.79
35085;SHT85;21267;51.032;6.998;2023-12-04T03:05:00;0.44;79.33
35085;SHT85;21267;51.032;6.998;2023-12-04T03:07:27;0.48;78.94
35085;SHT85;21267;51.032;6.998;2023-12-04T03:09:53;0.45;79.14
35085;SHT85;21267;51.032;6.998;2023-12-04T03:12:20;0.49;78.41
35085;SHT85;21267;51.032;6.998;2023-12-04T03:14:47;0.48;78.76
35085;SHT85;21267;51.032;6.998;2023-12-04T03:17:15;0.44;78.99
35085;SHT85;21267;51.032;6.998;2023-12-04T03:19:41;0.46;78.62
35085;SHT85;21267;51.032;6.998;2023-12-04T03:22:08;0.45;78.62
35085;SHT85;21267;51.032;6.998;2023-12-04T03:24:35;0.46;78.55
35085;SHT85;21267;51.032;6.998;2023-12-04T03:27:02;0.50;78.19
35085;SHT85;21267;51.032;6.998;2023-12-04T03:29:29;0.49;78.21
35085;SHT85;21267;51.032;6.998;2023-12-04T03:31:56;0.45;78.44
35085;SHT85;21267;51.032;6.998;2023-12-04T03:34:23;0.46;78.05
35085;SHT85;21267;51.032;6.998;2023-12-04T03:36:50;0.55;77.42
35085;SHT85;21267;51.032;6.998;2023-12-04T03:39:17;0.49;77.47
35085;SHT85;21267;51.032;6.998;2023-12-04T03:41:44;0.56;77.54
35085;SHT85;21267;51.032;6.998;2023-12-04T03:44:11;0.53;77.35
35085;SHT85;21267;51.032;6.998;2023-12-04T03:46:38;0.48;77.69
35085;SHT85;21267;51.032;6.998;2023-12-04T03:49:05;0.52;77.20
35085;SHT85;21267;51.032;6.998;2023-12-04T03:51:32;0.52;77.23
35085;SHT85;21267;51.032;6.998;2023-12-04T03:53:59;0.50;77.25
35085;SHT85;21267;51.032;6.998;2023-12-04T03:56:26;0.53;77.22
35085;SHT85;21267;51.032;6.998;2023-12-04T03:58:53;0.55;76.83
35085;SHT85;21267;51.032;6.998;2023-12-04T04:01:20;0.55;76.77
35085;SHT85;21267;51.032;6.998;2023-12-04T04:03:48;0.59;76.77
35085;SHT85;21267;51.032;6.998;2023-12-04T04:06:15;0.56;76.71
35085;SHT85;21267;51.032;6.998;2023-12-04T04:08:42;0.59;76.51
35085;SHT85;21267;51.032;6.998;2023-12-04T04:11:09;0.58;76.79
35085;SHT85;21267;51.032;6.998;2023-12-04T04:13:36;0.55;76.59
35085;SHT85;21267;51.032;6.998;2023-12-04T04:16:03;0.59;76.43
35085;SHT85;21267;51.032;6.998;2023-12-04T04:18:30;0.58;76.70
35085;SHT85;21267;51.032;6.998;2023-12-04T04:20:58;0.53;77.08
35085;SHT85;21267;51.032;6.998;2023-12-04T04:23:24;0.58;76.80
35085;SHT85;21267;51.032;6.998;2023-12-04T04:25:51;0.55;76.88
35085;SHT85;21267;51.032;6.998;2023-12-04T04:28:18;0.52;77.37
35085;SHT85;21267;51.032;6.998;2023-12-04T04:30:45;0.50;77.62
35085;SHT85;21267;51.032;6.998;2023-12-04T04:33:12;0.55;77.14
35085;SHT85;21267;51.032;6.998;2023-12-04T04:35:39;0.49;77.48
35085;SHT85;21267;51.032;6.998;2023-12-04T04:38:05;0.55;77.28
35085;SHT85;21267;51.032;6.998;2023-12-04T04:40:32;0.55;77.67
35085;SHT85;21267;51.032;6.998;2023-12-04T04:43:00;0.48;77.51
35085;SHT85;21267;51.032;6.998;2023-12-04T04:45:27;0.45;77.92
35085;SHT85;21267;51.032;6.998;2023-12-04T04:47:53;0.46;77.87
35085;SHT85;21267;51.032;6.998;2023-12-04T04:50:20;0.52;77.53
35085;SHT85;21267;51.032;6.998;2023-12-04T04:52:47;0.49;78.07
35085;SHT85;21267;51.032;6.998;2023-12-04T04:55:14;0.50;77.68
35085;SHT85;21267;51.032;6.998;2023-12-04T04:58:01;0.48;78.36
35085;SHT85;21267;51.032;6.998;2023-12-04T05:00:28;0.46;78.02
35085;SHT85;21267;51.032;6.998;2023-12-04T05:02:55;0.46;78.24
35085;SHT85;21267;51.032;6.998;2023-12-04T05:05:22;0.52;77.85
35085;SHT85;21267;51.032;6.998;2023-12-04T05:07:49;0.45;78.32
35085;SHT85;21267;51.032;6.998;2023-12-04T05:10:16;0.46;78.27
35085;SHT85;21267;51.032;6.998;2023-12-04T05:12:43;0.45;78.33
35085;SHT85;21267;51.032;6.998;2023-12-04T05:15:10;0.48;78.09
35085;SHT85;21267;51.032;6.998;2023-12-04T05:17:37;0.49;78.36
35085;SHT85;21267;51.032;6.998;2023-12-04T05:20:04;0.48;78.14
35085;SHT85;21267;51.032;6.998;2023-12-04T05:22:31;0.44;78.72
35085;SHT85;21267;51.032;6.998;2023-12-04T05:24:58;0.38;78.98
35085;SHT85;21267;51.032;6.998;2023-12-04T05:27:25;0.45;78.59
35085;SHT85;21267;51.032;6.998;2023-12-04T05:29:52;0.42;78.61
35085;SHT85;21267;51.032;6.998;2023-12-04T05:32:19;0.46;78.31
35085;SHT85;21267;51.032;6.998;2023-12-04T05:34:46;0.53;78.16
35085;SHT85;21267;51.032;6.998;2023-12-04T05:37:13;0.45;78.46
35085;SHT85;21267;51.032;6.998;2023-12-04T05:39:41;0.45;78.70
35085;SHT85;21267;51.032;6.998;2023-12-04T05:42:08;0.39;79.03
35085;SHT85;21267;51.032;6.998;2023-12-04T05:44:35;0.37;79.46
35085;SHT85;21267;51.032;6.998;2023-12-04T05:47:02;0.42;78.93
35085;SHT85;21267;51.032;6.998;2023-12-04T05:49:29;0.45;78.84
35085;SHT85;21267;51.032;6.998;2023-12-04T05:51:57;0.50;78.54
35085;SHT85;21267;51.032;6.998;2023-12-04T05:54:24;0.44;78.95
35085;SHT85;21267;51.032;6.998;2023-12-04T05:56:51;0.46;78.53
35085;SHT85;21267;51.032;6.998;2023-12-04T05:59:18;0.39;78.88
35085;SHT85;21267;51.032;6.998;2023-12-04T06:01:45;0.42;79.10
35085;SHT85;21267;51.032;6.998;2023-12-04T06:04:12;0.42;79.29
35085;SHT85;21267;51.032;6.998;2023-12-04T06:06:39;0.41;79.06
35085;SHT85;21267;51.032;6.998;2023-12-04T06:09:06;0.37;79.61
35085;SHT85;21267;51.032;6.998;2023-12-04T06:11:33;0.44;78.89
35085;SHT85;21267;51.032;6.998;2023-12-04T06:14:00;0.41;79.17
35085;SHT85;21267;51.032;6.998;2023-12-04T06:16:27;0.38;79.01
35085;SHT85;21267;51.032;6.998;2023-12-04T06:18:54;0.34;79.36
35085;SHT85;21267;51.032;6.998;2023-12-04T06:21:21;0.34;79.37
35085;SHT85;21267;51.032;6.998;2023-12-04T06:23:48;0.31;79.21
35085;SHT85;21267;51.032;6.998;2023-12-04T06:26:15;0.31;79.42
35085;SHT85;21267;51.032;6.998;2023-12-04T06:28:43;0.31;79.34
35085;SHT85;21267;51.032;6.998;2023-12-04T06:31:10;0.28;79.29
35085;SHT85;21267;51.032;6.998;2023-12-04T06:33:37;0.25;79.79
35085;SHT85;21267;51.032;6.998;2023-12-04T06:36:06;0.22;79.65
35085;SHT85;21267;51.032;6.998;2023-12-04T06:38:37;0.24;79.87
35085;SHT85;21267;51.032;6.998;2023-12-04T06:41:07;0.24;79.70
35085;SHT85;21267;51.032;6.998;2023-12-04T06:43:34;0.25;79.20
35085;SHT85;21267;51.032;6.998;2023-12-04T06:46:02;0.25;79.57
35085;SHT85;21267;51.032;6.998;2023-12-04T06:48:29;0.26;79.21
35085;SHT85;21267;51.032;6.998;2023-12-04T06:50:56;0.25;79.78
35085;SHT85;21267;51.032;6.998;2023-12-04T06:53:23;0.26;79.60
35085;SHT85;21267;51.032;6.998;2023-12-04T06:55:50;0.29;79.07
35085;SHT85;21267;51.032;6.998;2023-12-04T06:58:17;0.31;78.50
35085;SHT85;21267;51.032;6.998;2023-12-04T07:00:44;0.31;78.63
35085;SHT85;21267;51.032;6.998;2023-12-04T07:03:13;0.35;78.49
35085;SHT85;21267;51.032;6.998;2023-12-04T07:05:40;0.44;78.71
35085;SHT85;21267;51.032;6.998;2023-12-04T07:08:08;0.44;78.27
35085;SHT85;21267;51.032;6.998;2023-12-04T07:10:34;0.48;77.93
35085;SHT85;21267;51.032;6.998;2023-12-04T07:13:01;0.52;77.74
35085;SHT85;21267;51.032;6.998;2023-12-04T07:15:28;0.53;77.52
35085;SHT85;21267;51.032;6.998;2023-12-04T07:17:55;0.62;77.34
35085;SHT85;21267;51.032;6.998;2023-12-04T07:20:23;0.66;77.20
35085;SHT85;21267;51.032;6.998;2023-12-04T07:22:51;0.69;77.01
35085;SHT85;21267;51.032;6.998;2023-12-04T07:25:18;0.77;76.44
35085;SHT85;21267;51.032;6.998;2023-12-04T07:27:44;0.79;76.33
35085;SHT85;21267;51.032;6.998;2023-12-04T07:33:38;0.80;76.77
35085;SHT85;21267;51.032;6.998;2023-12-04T07:36:05;0.87;76.34
35085;SHT85;21267;51.032;6.998;2023-12-04T07:38:33;0.96;75.12
35085;SHT85;21267;51.032;6.998;2023-12-04T07:41:00;1.00;74.92
35085;SHT85;21267;51.032;6.998;2023-12-04T07:43:27;1.03;75.24
35085;SHT85;21267;51.032;6.998;2023-12-04T07:45:57;1.05;75.14
35085;SHT85;21267;51.032;6.998;2023-12-04T07:48:24;1.04;75.26
35085;SHT85;21267;51.032;6.998;2023-12-04T07:50:51;1.13;74.81
35085;SHT85;21267;51.032;6.998;2023-12-04T07:53:18;1.10;74.63
35085;SHT85;21267;51.032;6.998;2023-12-04T07:55:45;1.18;74.23
35085;SHT85;21267;51.032;6.998;2023-12-04T07:58:13;1.17;73.95
35085;SHT85;21267;51.032;6.998;2023-12-04T08:00:40;1.27;73.14
35085;SHT85;21267;51.032;6.998;2023-12-04T08:03:08;1.26;73.19
35085;SHT85;21267;51.032;6.998;2023-12-04T08:05:35;1.28;72.55
35085;SHT85;21267;51.032;6.998;2023-12-04T08:08:02;1.28;72.90
35085;SHT85;21267;51.032;6.998;2023-12-04T08:10:29;1.27;73.15
35085;SHT85;21267;51.032;6.998;2023-12-04T08:12:56;1.30;72.52
35085;SHT85;21267;51.032;6.998;2023-12-04T08:15:23;1.32;72.81
35085;SHT85;21267;51.032;6.998;2023-12-04T08:17:50;1.28;72.94
35085;SHT85;21267;51.032;6.998;2023-12-04T08:20:17;1.27;72.50
35085;SHT85;21267;51.032;6.998;2023-12-04T08:23:01;1.24;72.76
35085;SHT85;21267;51.032;6.998;2023-12-04T08:25:28;1.24;72.89
35085;SHT85;21267;51.032;6.998;2023-12-04T08:27:55;1.20;73.00
35085;SHT85;21267;51.032;6.998;2023-12-04T08:30:24;1.14;73.46
35085;SHT85;21267;51.032;6.998;2023-12-04T08:32:53;1.16;73.62
35085;SHT85;21267;51.032;6.998;2023-12-04T08:35:20;1.14;73.27
35085;SHT85;21267;51.032;6.998;2023-12-04T08:37:48;1.11;73.57
35085;SHT85;21267;51.032;6.998;2023-12-04T08:40:16;1.13;73.02
35085;SHT85;21267;51.032;6.998;2023-12-04T08:42:43;1.11;73.24
35085;SHT85;21267;51.032;6.998;2023-12-04T08:45:12;1.13;73.22
35085;SHT85;21267;51.032;6.998;2023-12-04T08:47:39;1.17;73.67
35085;SHT85;21267;51.032;6.998;2023-12-04T08:50:06;1.17;73.22
35085;SHT85;21267;51.032;6.998;2023-12-04T08:52:33;1.23;72.96
35085;SHT85;21267;51.032;6.998;2023-12-04T08:55:00;1.18;73.03
35085;SHT85;21267;51.032;6.998;2023-12-04T08:57:28;1.24;72.86
35085;SHT85;21267;51.032;6.998;2023-12-04T08:59:56;1.26;73.28
35085;SHT85;21267;51.032;6.998;2023-12-04T09:02:23;1.23;73.08
35085;SHT85;21267;51.032;6.998;2023-12-04T09:04:51;1.27;72.72
35085;SHT85;21267;51.032;6.998;2023-12-04T09:07:18;1.28;73.04
35085;SHT85;21267;51.032;6.998;2023-12-04T09:09:48;1.35;72.32
35085;SHT85;21267;51.032;6.998;2023-12-04T09:12:14;1.35;71.94
35085;SHT85;21267;51.032;6.998;2023-12-04T09:14:41;1.37;72.40
35085;SHT85;21267;51.032;6.998;2023-12-04T09:17:08;1.44;72.22
35085;SHT85;21267;51.032;6.998;2023-12-04T09:19:35;1.48;72.45
35085;SHT85;21267;51.032;6.998;2023-12-04T09:22:02;1.45;71.49
35085;SHT85;21267;51.032;6.998;2023-12-04T09:24:42;1.45;71.56
35085;SHT85;21267;51.032;6.998;2023-12-04T09:27:11;1.48;71.34
35085;SHT85;21267;51.032;6.998;2023-12-04T09:29:40;1.48;71.73
35085;SHT85;21267;51.032;6.998;2023-12-04T09:32:07;1.49;71.71
35085;SHT85;21267;51.032;6.998;2023-12-04T09:34:34;1.45;71.89
35085;SHT85;21267;51.032;6.998;2023-12-04T09:37:01;1.49;71.68
35085;SHT85;21267;51.032;6.998;2023-12-04T09:39:36;1.48;71.30
35085;SHT85;21267;51.032;6.998;2023-12-04T09:42:03;1.49;71.98
35085;SHT85;21267;51.032;6.998;2023-12-04T09:44:31;1.52;72.09
35085;SHT85;21267;51.032;6.998;2023-12-04T09:46:59;1.58;72.33
35085;SHT85;21267;51.032;6.998;2023-12-04T09:49:28;1.52;71.40
35085;SHT85;21267;51.032;6.998;2023-12-04T09:52:01;1.59;71.44
35085;SHT85;21267;51.032;6.998;2023-12-04T09:54:29;1.60;71.79
35085;SHT85;21267;51.032;6.998;2023-12-04T09:56:57;1.66;71.45
35085;SHT85;21267;51.032;6.998;2023-12-04T09:59:24;1.65;71.48
35085;SHT85;21267;51.032;6.998;2023-12-04T10:01:52;1.68;71.72
35085;SHT85;21267;51.032;6.998;2023-12-04T10:04:19;1.73;71.45
35085;SHT85;21267;51.032;6.998;2023-12-04T10:06:51;1.72;71.37
35085;SHT85;21267;51.032;6.998;2023-12-04T10:09:21;1.79;71.91
35085;SHT85;21267;51.032;6.998;2023-12-04T10:11:53;1.82;71.37
35085;SHT85;21267;51.032;6.998;2023-12-04T10:14:22;1.82;71.45
35085;SHT85;21267;51.032;6.998;2023-12-04T10:16:49;1.78;71.19
35085;SHT85;21267;51.032;6.998;2023-12-04T10:19:19;1.87;71.47
35085;SHT85;21267;51.032;6.998;2023-12-04T10:21:48;1.89;71.54
35085;SHT85;21267;51.032;6.998;2023-12-04T10:24:35;1.89;71.93
35085;SHT85;21267;51.032;6.998;2023-12-04T10:27:04;1.87;72.14
35085;SHT85;21267;51.032;6.998;2023-12-04T10:29:48;1.86;71.95
35085;SHT85;21267;51.032;6.998;2023-12-04T10:32:20;1.86;72.04
35085;SHT85;21267;51.032;6.998;2023-12-04T10:34:50;1.87;72.56
35085;SHT85;21267;51.032;6.998;2023-12-04T10:37:17;1.95;72.69
35085;SHT85;21267;51.032;6.998;2023-12-04T10:39:48;2.00;72.45
35085;SHT85;21267;51.032;6.998;2023-12-04T10:44:57;1.93;72.53
35085;SHT85;21267;51.032;6.998;2023-12-04T10:47:25;2.00;72.66
35085;SHT85;21267;51.032;6.998;2023-12-04T10:49:53;1.99;72.75
35085;SHT85;21267;51.032;6.998;2023-12-04T10:52:20;1.96;72.76
35085;SHT85;21267;51.032;6.998;2023-12-04T10:54:48;1.93;73.33
35085;SHT85;21267;51.032;6.998;2023-12-04T10:57:33;1.93;74.06
35085;SHT85;21267;51.032;6.998;2023-12-04T11:00:05;1.83;75.00
35085;SHT85;21267;51.032;6.998;2023-12-04T11:02:38;1.69;76.71
35085;SHT85;21267;51.032;6.998;2023-12-04T11:05:15;1.60;77.87
35085;SHT85;21267;51.032;6.998;2023-12-04T11:07:49;1.47;78.84
35085;SHT85;21267;51.032;6.998;2023-12-04T11:10:58;1.47;80.09
35085;SHT85;21267;51.032;6.998;2023-12-04T11:13:30;1.47;80.09
35085;SHT85;21267;51.032;6.998;2023-12-04T11:18:36;1.39;80.46
35085;SHT85;21267;51.032;6.998;2023-12-04T11:21:07;1.32;81.01
35085;SHT85;21267;51.032;6.998;2023-12-04T11:23:34;1.31;81.42
35085;SHT85;21267;51.032;6.998;2023-12-04T11:26:03;1.35;81.88
35085;SHT85;21267;51.032;6.998;2023-12-04T11:28:32;1.31;81.95
35085;SHT85;21267;51.032;6.998;2023-12-04T11:30:59;1.18;82.37
35085;SHT85;21267;51.032;6.998;2023-12-04T11:33:27;1.18;83.13
35085;SHT85;21267;51.032;6.998;2023-12-04T11:36:14;1.16;83.96
35085;SHT85;21267;51.032;6.998;2023-12-04T11:38:45;1.10;84.64
35085;SHT85;21267;51.032;6.998;2023-12-04T11:41:20;1.17;85.51
35085;SHT85;21267;51.032;6.998;2023-12-04T11:43:55;1.01;85.67
35085;SHT85;21267;51.032;6.998;2023-12-04T11:46:24;0.97;86.41
35085;SHT85;21267;51.032;6.998;2023-12-04T11:49:27;1.01;86.86
35085;SHT85;21267;51.032;6.998;2023-12-04T11:51:58;1.07;87.57
35085;SHT85;21267;51.032;6.998;2023-12-04T11:54:27;1.05;87.59
35085;SHT85;21267;51.032;6.998;2023-12-04T11:59:38;0.91;88.22
35085;SHT85;21267;51.032;6.998;2023-12-04T12:02:10;0.97;88.64
35085;SHT85;21267;51.032;6.998;2023-12-04T12:04:38;0.97;88.90
35085;SHT85;21267;51.032;6.998;2023-12-04T12:07:05;1.03;88.97
35085;SHT85;21267;51.032;6.998;2023-12-04T12:09:33;1.03;89.33
35085;SHT85;21267;51.032;6.998;2023-12-04T12:12:01;1.00;89.33
35085;SHT85;21267;51.032;6.998;2023-12-04T12:14:29;1.00;89.68
35085;SHT85;21267;51.032;6.998;2023-12-04T12:17:00;0.99;89.46
35085;SHT85;21267;51.032;6.998;2023-12-04T12:19:27;0.97;89.72
35085;SHT85;21267;51.032;6.998;2023-12-04T12:21:55;0.96;90.09
35085;SHT85;21267;51.032;6.998;2023-12-04T12:24:23;0.99;90.17
35085;SHT85;21267;51.032;6.998;2023-12-04T12:26:52;0.91;90.43
35085;SHT85;21267;51.032;6.998;2023-12-04T12:29:20;0.89;90.66
35085;SHT85;21267;51.032;6.998;2023-12-04T12:31:47;0.87;90.79
35085;SHT85;21267;51.032;6.998;2023-12-04T12:34:14;0.89;91.04
35085;SHT85;21267;51.032;6.998;2023-12-04T12:36:41;0.86;91.08
35085;SHT85;21267;51.032;6.998;2023-12-04T12:39:08;0.86;91.34
35085;SHT85;21267;51.032;6.998;2023-12-04T12:41:36;0.83;91.61
35085;SHT85;21267;51.032;6.998;2023-12-04T12:44:03;0.90;91.67
35085;SHT85;21267;51.032;6.998;2023-12-04T12:46:30;0.89;91.77
35085;SHT85;21267;51.032;6.998;2023-12-04T12:48:57;0.89;91.81
35085;SHT85;21267;51.032;6.998;2023-12-04T12:51:26;0.89;92.09
35085;SHT85;21267;51.032;6.998;2023-12-04T12:53:53;0.87;92.18
35085;SHT85;21267;51.032;6.998;2023-12-04T12:56:20;0.94;92.32
35085;SHT85;21267;51.032;6.998;2023-12-04T12:58:48;1.01;92.50
35085;SHT85;21267;51.032;6.998;2023-12-04T13:01:16;0.99;92.36
35085;SHT85;21267;51.032;6.998;2023-12-04T13:03:46;1.04;92.53
35085;SHT85;21267;51.032;6.998;2023-12-04T13:06:14;1.13;92.59
35085;SHT85;21267;51.032;6.998;2023-12-04T13:08:42;1.11;92.67
35085;SHT85;21267;51.032;6.998;2023-12-04T13:11:09;1.10;92.56
35085;SHT85;21267;51.032;6.998;2023-12-04T13:13:36;1.07;92.81
35085;SHT85;21267;51.032;6.998;2023-12-04T13:16:03;1.14;92.90
35085;SHT85;21267;51.032;6.998;2023-12-04T13:18:31;1.13;92.78
35085;SHT85;21267;51.032;6.998;2023-12-04T13:21:01;1.17;92.98
35085;SHT85;21267;51.032;6.998;2023-12-04T13:23:28;1.11;92.58
35085;SHT85;21267;51.032;6.998;2023-12-04T13:25:55;1.13;92.34
35085;SHT85;21267;51.032;6.998;2023-12-04T13:28:22;1.10;92.27
35085;SHT85;21267;51.032;6.998;2023-12-04T13:31:02;1.14;92.10
35085;SHT85;21267;51.032;6.998;2023-12-04T13:33:29;1.20;91.84
35085;SHT85;21267;51.032;6.998;2023-12-04T13:35:56;1.20;91.56
35085;SHT85;21267;51.032;6.998;2023-12-04T13:38:23;1.21;91.49
35085;SHT85;21267;51.032;6.998;2023-12-04T13:41:00;1.23;91.34
35085;SHT85;21267;51.032;6.998;2023-12-04T13:43:35;1.28;91.20
35085;SHT85;21267;51.032;6.998;2023-12-04T13:46:18;1.27;90.95
35085;SHT85;21267;51.032;6.998;2023-12-04T13:48:45;1.28;90.58
35085;SHT85;21267;51.032;6.998;2023-12-04T13:51:13;1.32;90.30
35085;SHT85;21267;51.032;6.998;2023-12-04T13:53:40;1.35;90.15
35085;SHT85;21267;51.032;6.998;2023-12-04T13:56:11;1.37;90.00
35085;SHT85;21267;51.032;6.998;2023-12-04T13:58:38;1.35;89.63
35085;SHT85;21267;51.032;6.998;2023-12-04T14:01:10;1.37;89.27
35085;SHT85;21267;51.032;6.998;2023-12-04T14:03:43;1.39;89.42
35085;SHT85;21267;51.032;6.998;2023-12-04T14:06:10;1.42;89.17
35085;SHT85;21267;51.032;6.998;2023-12-04T14:08:37;1.42;89.03
35085;SHT85;21267;51.032;6.998;2023-12-04T14:11:05;1.47;88.78
35085;SHT85;21267;51.032;6.998;2023-12-04T14:13:32;1.47;88.66
35085;SHT85;21267;51.032;6.998;2023-12-04T14:16:00;1.52;88.63
35085;SHT85;21267;51.032;6.998;2023-12-04T14:18:28;1.55;88.43
35085;SHT85;21267;51.032;6.998;2023-12-04T14:20:57;1.56;87.98
35085;SHT85;21267;51.032;6.998;2023-12-04T14:23:24;1.56;88.02
35085;SHT85;21267;51.032;6.998;2023-12-04T14:25:52;1.59;87.66
35085;SHT85;21267;51.032;6.998;2023-12-04T14:28:19;1.56;87.44
35085;SHT85;21267;51.032;6.998;2023-12-04T14:31:00;1.60;87.11
35085;SHT85;21267;51.032;6.998;2023-12-04T14:33:27;1.65;87.31
35085;SHT85;21267;51.032;6.998;2023-12-04T14:35:54;1.63;87.02
35085;SHT85;21267;51.032;6.998;2023-12-04T14:38:22;1.69;86.89
35085;SHT85;21267;51.032;6.998;2023-12-04T14:40:49;1.70;86.69
35085;SHT85;21267;51.032;6.998;2023-12-04T14:43:16;1.73;86.85
35085;SHT85;21267;51.032;6.998;2023-12-04T14:45:43;1.76;86.61
35085;SHT85;21267;51.032;6.998;2023-12-04T14:48:11;1.78;86.50
35085;SHT85;21267;51.032;6.998;2023-12-04T14:50:38;1.78;86.80
35085;SHT85;21267;51.032;6.998;2023-12-04T14:53:06;1.78;86.46
35085;SHT85;21267;51.032;6.998;2023-12-04T14:55:43;1.80;86.49
35085;SHT85;21267;51.032;6.998;2023-12-04T14:58:30;1.83;86.27
35085;SHT85;21267;51.032;6.998;2023-12-04T15:01:12;1.83;86.48
35085;SHT85;21267;51.032;6.998;2023-12-04T15:04:03;1.86;86.11
35085;SHT85;21267;51.032;6.998;2023-12-04T15:06:49;1.87;86.22
35085;SHT85;21267;51.032;6.998;2023-12-04T15:09:22;1.85;86.41
35085;SHT85;21267;51.032;6.998;2023-12-04T15:12:05;1.85;86.63
35085;SHT85;21267;51.032;6.998;2023-12-04T15:14:49;1.87;86.44
35085;SHT85;21267;51.032;6.998;2023-12-04T15:17:23;1.86;86.47
35085;SHT85;21267;51.032;6.998;2023-12-04T15:19:56;1.83;86.38
35085;SHT85;21267;51.032;6.998;2023-12-04T15:22:25;1.85;86.45
35085;SHT85;21267;51.032;6.998;2023-12-04T15:24:53;1.85;86.53
35085;SHT85;21267;51.032;6.998;2023-12-04T15:27:19;1.83;86.98
35085;SHT85;21267;51.032;6.998;2023-12-04T15:29:46;1.78;87.46
35085;SHT85;21267;51.032;6.998;2023-12-04T15:32:13;1.65;88.21
35085;SHT85;21267;51.032;6.998;2023-12-04T15:34:40;1.54;89.08
35085;SHT85;21267;51.032;6.998;2023-12-04T15:37:07;1.44;89.97
35085;SHT85;21267;51.032;6.998;2023-12-04T15:39:35;1.38;90.49
35085;SHT85;21267;51.032;6.998;2023-12-04T15:42:02;1.24;91.34
35085;SHT85;21267;51.032;6.998;2023-12-04T15:44:33;1.18;92.46
35085;SHT85;21267;51.032;6.998;2023-12-04T15:47:00;1.13;92.69
35085;SHT85;21267;51.032;6.998;2023-12-04T15:49:27;1.11;92.85
35085;SHT85;21267;51.032;6.998;2023-12-04T15:51:54;1.10;92.99
35085;SHT85;21267;51.032;6.998;2023-12-04T15:54:22;1.18;93.06
35085;SHT85;21267;51.032;6.998;2023-12-04T15:56:49;1.11;93.10
35085;SHT85;21267;51.032;6.998;2023-12-04T15:59:16;1.11;93.52
35085;SHT85;21267;51.032;6.998;2023-12-04T16:01:42;1.10;93.63
35085;SHT85;21267;51.032;6.998;2023-12-04T16:04:09;1.14;93.47
35085;SHT85;21267;51.032;6.998;2023-12-04T16:06:39;1.14;93.39
35085;SHT85;21267;51.032;6.998;2023-12-04T16:09:09;1.17;93.50